createdAt,value
2023-02-22T00:05:13.546Z,18.40
2023-02-22T00:15:22.614Z,25.50
2023-02-22T00:25:29.996Z,23.00
2023-02-22T00:35:37.137Z,26.60
2023-02-22T00:45:44.969Z,35.10
2023-02-22T00:55:53.069Z,36.40
2023-02-22T01:06:00.176Z,25.80
2023-02-22T01:16:07.015Z,23.50
2023-02-22T01:26:14.259Z,26.70
2023-02-22T01:36:22.723Z,27.40
2023-02-22T01:46:31.733Z,29.80
2023-02-22T01:56:41.940Z,33.20
2023-02-22T02:06:49.730Z,53.20
2023-02-22T02:17:02.839Z,28.10
2023-02-22T02:27:11.730Z,25.60
2023-02-22T02:37:21.958Z,25.50
2023-02-22T02:47:33.047Z,26.10
2023-02-22T02:57:40.593Z,23.00
2023-02-22T03:07:46.967Z,23.80
2023-02-22T03:17:53.769Z,22.10
2023-02-22T03:28:01.940Z,27.10
2023-02-22T03:38:13.393Z,25.90
2023-02-22T03:48:24.705Z,34.00
2023-02-22T03:58:35.998Z,28.00
2023-02-22T04:08:44.278Z,25.20
2023-02-22T04:18:51.558Z,16.30
2023-02-22T04:28:58.806Z,32.50
2023-02-22T04:39:06.558Z,32.90
2023-02-22T04:49:13.560Z,30.70
2023-02-22T04:59:21.180Z,33.90
2023-02-22T05:09:28.557Z,27.00
2023-02-22T05:19:36.163Z,51.80
2023-02-22T05:29:43.084Z,71.80
2023-02-22T05:39:51.201Z,91.80
2023-02-22T05:49:58.351Z,143.60
2023-02-22T06:00:08.055Z,153.40
2023-02-22T06:10:15.382Z,106.90
2023-02-22T06:20:22.798Z,64.30
2023-02-22T06:30:31.886Z,39.50
2023-02-22T06:40:39.024Z,42.10
2023-02-22T06:50:46.514Z,105.60
2023-02-22T07:00:53.791Z,47.90
2023-02-22T07:11:01.012Z,33.00
2023-02-22T07:21:05.700Z,37.30
2023-02-22T07:31:12.868Z,30.90
2023-02-22T07:41:20.035Z,30.00
2023-02-22T07:51:27.747Z,39.30
2023-02-22T08:01:37.379Z,39.40
2023-02-22T08:11:44.728Z,25.30
2023-02-22T08:21:51.904Z,24.70
2023-02-22T08:31:59.270Z,18.30
2023-02-22T08:42:05.279Z,20.70
2023-02-22T08:52:10.388Z,21.70
2023-02-22T09:02:15.334Z,15.30
2023-02-22T09:12:22.552Z,25.60
2023-02-22T09:22:30.231Z,33.20
2023-02-22T09:32:39.395Z,22.80
2023-02-22T09:42:49.664Z,12.90
2023-02-22T09:52:55.379Z,9.60
2023-02-22T10:02:59.610Z,3.20
2023-02-22T10:13:06.140Z,13.80
2023-02-22T10:23:13.179Z,17.60
2023-02-22T10:33:26.856Z,11.60
2023-02-22T10:43:34.576Z,9.80
2023-02-22T10:53:41.863Z,16.80
2023-02-22T11:03:58.144Z,14.30
2023-02-22T11:14:06.912Z,12.40
2023-02-22T11:34:31.695Z,12.70
2023-02-22T11:44:36.418Z,13.70
2023-02-22T11:54:53.278Z,10.80
2023-02-22T12:05:08.470Z,17.10
2023-02-22T12:15:18.095Z,15.80
2023-02-22T12:25:26.803Z,16.40
2023-02-22T12:35:39.031Z,10.00
2023-02-22T12:45:44.436Z,12.20
2023-02-22T12:55:59.067Z,17.20
2023-02-22T13:06:12.598Z,14.60
2023-02-22T13:16:22.172Z,12.00
2023-02-22T13:26:32.535Z,17.40
2023-02-22T13:36:37.802Z,17.80
2023-02-22T13:47:08.801Z,11.60
2023-02-22T13:57:19.676Z,9.70
2023-02-22T14:07:51.805Z,12.80
2023-02-22T14:17:59.783Z,18.00
2023-02-22T14:28:07.570Z,13.00
2023-02-22T14:38:18.270Z,8.50
2023-02-22T14:48:29.069Z,11.80
2023-02-22T14:58:38.862Z,15.60
2023-02-22T15:08:47.599Z,17.90
2023-02-22T15:18:53.505Z,19.60
2023-02-22T15:29:02.311Z,25.30
2023-02-22T15:39:19.692Z,28.50
2023-02-22T15:49:29.620Z,15.10
2023-02-22T15:59:46.179Z,16.50
2023-02-22T16:09:54.456Z,20.80
2023-02-22T16:19:58.699Z,27.40
2023-02-22T16:30:15.530Z,30.30
2023-02-22T16:40:33.828Z,25.50
2023-02-22T16:50:40.938Z,22.50
2023-02-22T17:00:48.185Z,33.60
2023-02-22T17:10:57.183Z,46.60
2023-02-22T17:21:04.951Z,48.80
2023-02-22T17:31:19.041Z,45.40
2023-02-22T17:41:26.747Z,51.00
2023-02-22T17:51:33.911Z,47.40
2023-02-22T18:01:44.191Z,45.90
2023-02-22T18:11:51.485Z,30.70
2023-02-22T18:22:00.376Z,37.60
2023-02-22T18:32:08.245Z,52.00
2023-02-22T18:42:17.683Z,49.00
2023-02-22T18:52:24.977Z,44.40
2023-02-22T19:02:32.192Z,30.60
2023-02-22T19:12:39.675Z,27.50
2023-02-22T19:22:49.456Z,35.70
2023-02-22T19:43:02.347Z,44.80
2023-02-22T19:53:14.099Z,23.90
2023-02-22T20:03:22.539Z,25.20
2023-02-22T20:13:30.139Z,42.30
2023-02-22T20:23:40.338Z,42.90
2023-02-22T20:33:50.084Z,34.90
2023-02-22T20:43:58.287Z,22.20
2023-02-22T20:54:06.940Z,23.90
2023-02-22T21:04:15.308Z,31.10
2023-02-22T21:14:24.561Z,36.20
2023-02-22T21:24:31.984Z,26.10
2023-02-22T21:34:39.358Z,25.50
2023-02-22T21:44:46.584Z,38.70
2023-02-22T21:54:53.729Z,40.80
2023-02-22T22:05:00.736Z,28.80
2023-02-22T22:15:09.644Z,32.80
2023-02-22T22:25:17.355Z,42.50
2023-02-22T22:35:24.665Z,50.90
2023-02-22T22:45:32.972Z,30.10
2023-02-22T22:55:41.091Z,40.70
2023-02-22T23:05:48.643Z,39.80
2023-02-22T23:15:55.890Z,42.20
2023-02-22T23:26:04.078Z,41.40
2023-02-22T23:36:12.644Z,22.20
2023-02-22T23:46:20.256Z,29.20
2023-02-22T23:56:29.175Z,42.50
